createdAt,value
2018-07-20T00:03:48.576Z,17.80
2018-07-20T00:07:51.833Z,17.70
2018-07-20T00:11:55.122Z,17.60
2018-07-20T00:15:58.950Z,17.50
2018-07-20T00:20:02.212Z,17.40
2018-07-20T00:24:05.489Z,17.30
2018-07-20T00:28:08.748Z,17.10
2018-07-20T00:32:12.050Z,17.10
2018-07-20T00:36:15.383Z,16.80
2018-07-20T00:40:18.636Z,16.50
2018-07-20T00:44:22.268Z,16.50
2018-07-20T00:48:25.533Z,16.50
2018-07-20T00:52:28.800Z,16.40
2018-07-20T00:56:32.141Z,16.30
2018-07-20T01:00:35.417Z,16.20
2018-07-20T01:04:38.705Z,16.20
2018-07-20T01:08:41.966Z,16.10
2018-07-20T01:12:45.331Z,16.00
2018-07-20T01:16:48.612Z,15.90
2018-07-20T01:20:51.904Z,15.90
2018-07-20T01:24:55.190Z,15.90
2018-07-20T01:28:58.461Z,16.00
2018-07-20T01:33:01.893Z,16.00
2018-07-20T01:37:05.369Z,15.90
2018-07-20T01:41:09.031Z,15.90
2018-07-20T01:45:12.310Z,15.80
2018-07-20T01:49:15.585Z,15.80
2018-07-20T01:53:18.883Z,15.70
2018-07-20T01:57:22.141Z,15.50
2018-07-20T02:01:25.569Z,15.60
2018-07-20T02:05:28.856Z,15.50
2018-07-20T02:09:32.337Z,15.20
2018-07-20T02:13:35.602Z,14.90
2018-07-20T02:17:38.864Z,14.70
2018-07-20T02:21:45.093Z,14.70
2018-07-20T02:25:48.385Z,14.70
2018-07-20T02:29:51.719Z,14.80
2018-07-20T02:33:54.974Z,14.80
2018-07-20T02:37:58.325Z,14.70
2018-07-20T02:42:01.583Z,14.80
2018-07-20T02:46:04.944Z,14.90
2018-07-20T02:50:08.266Z,15.00
2018-07-20T02:54:11.721Z,15.10
2018-07-20T02:58:15.006Z,15.10
2018-07-20T03:02:18.284Z,15.10
2018-07-20T03:06:21.594Z,15.20
2018-07-20T03:10:24.851Z,15.20
2018-07-20T03:14:28.150Z,15.10
2018-07-20T03:18:31.701Z,15.10
2018-07-20T03:22:34.965Z,15.10
2018-07-20T03:26:38.250Z,14.90
2018-07-20T03:30:45.080Z,14.80
2018-07-20T03:34:48.485Z,14.90
2018-07-20T03:38:55.609Z,14.90
2018-07-20T03:42:58.973Z,14.90
2018-07-20T03:47:02.293Z,14.90
2018-07-20T03:51:05.579Z,14.80
2018-07-20T03:55:08.911Z,14.80
2018-07-20T03:59:12.232Z,14.80
2018-07-20T04:07:18.653Z,14.90
2018-07-20T04:11:21.912Z,15.20
2018-07-20T04:15:25.256Z,15.40
2018-07-20T04:19:28.606Z,15.60
2018-07-20T04:23:31.877Z,15.70
2018-07-20T04:27:35.402Z,15.80
2018-07-20T04:31:38.697Z,15.90
2018-07-20T04:35:42.013Z,16.10
2018-07-20T04:39:45.496Z,16.20
2018-07-20T04:43:48.799Z,16.20
2018-07-20T04:47:52.693Z,16.10
2018-07-20T04:51:55.950Z,16.10
2018-07-20T04:55:59.251Z,16.10
2018-07-20T05:00:02.583Z,16.10
2018-07-20T05:04:06.058Z,16.10
2018-07-20T05:08:09.348Z,16.10
2018-07-20T05:12:12.618Z,16.20
2018-07-20T05:16:15.986Z,16.20
2018-07-20T05:20:19.301Z,16.30
2018-07-20T05:24:22.615Z,16.30
2018-07-20T05:28:25.856Z,16.00
2018-07-20T05:32:29.166Z,15.70
2018-07-20T05:36:32.402Z,15.60
2018-07-20T05:40:35.784Z,15.80
2018-07-20T05:44:39.044Z,15.90
2018-07-20T05:48:42.322Z,16.00
2018-07-20T05:56:49.209Z,16.30
2018-07-20T06:00:52.488Z,16.40
2018-07-20T06:04:55.778Z,16.50
2018-07-20T06:08:59.037Z,16.60
2018-07-20T06:13:02.540Z,16.60
2018-07-20T06:17:06.073Z,16.70
2018-07-20T06:21:09.364Z,16.80
2018-07-20T06:25:12.721Z,17.00
2018-07-20T06:29:16.005Z,17.30
2018-07-20T06:33:19.281Z,17.50
2018-07-20T06:37:22.538Z,17.70
2018-07-20T06:41:26.128Z,18.00
2018-07-20T06:45:29.409Z,18.20
2018-07-20T06:49:32.685Z,18.40
2018-07-20T06:53:36.031Z,18.70
2018-07-20T06:57:39.384Z,18.90
2018-07-20T07:01:42.664Z,19.10
2018-07-20T07:05:45.954Z,19.40
2018-07-20T07:09:49.257Z,19.60
2018-07-20T07:13:52.536Z,19.80
2018-07-20T07:17:55.788Z,20.10
2018-07-20T07:21:59.073Z,20.40
2018-07-20T07:26:02.363Z,20.30
2018-07-20T07:30:05.657Z,20.40
2018-07-20T07:34:09.044Z,20.90
2018-07-20T07:38:12.325Z,21.00
2018-07-20T07:42:15.702Z,21.00
2018-07-20T07:46:19.344Z,21.10
2018-07-20T07:50:22.615Z,21.20
2018-07-20T07:54:25.888Z,21.40
2018-07-20T07:58:29.269Z,22.00
2018-07-20T08:02:32.560Z,22.10
2018-07-20T08:06:35.886Z,22.10
2018-07-20T08:10:39.161Z,22.60
2018-07-20T08:14:42.465Z,23.20
2018-07-20T08:18:45.718Z,23.30
2018-07-20T08:22:49.090Z,23.50
2018-07-20T08:26:52.359Z,23.50
2018-07-20T08:30:55.622Z,23.70
2018-07-20T08:34:58.916Z,24.20
2018-07-20T08:39:02.216Z,24.00
2018-07-20T08:43:05.698Z,23.90
2018-07-20T08:47:08.970Z,24.20
2018-07-20T08:51:12.272Z,24.10
2018-07-20T08:55:15.614Z,24.10
2018-07-20T08:59:19.045Z,24.00
2018-07-20T09:03:22.381Z,24.10
2018-07-20T09:07:25.684Z,24.10
2018-07-20T09:11:28.952Z,24.30
2018-07-20T09:15:32.271Z,24.60
2018-07-20T09:19:36.431Z,25.00
2018-07-20T09:23:39.728Z,25.40
2018-07-20T09:27:43.000Z,25.90
2018-07-20T09:31:46.272Z,26.20
2018-07-20T09:35:49.626Z,25.70
2018-07-20T09:39:52.884Z,26.50
2018-07-20T09:43:56.158Z,27.50
2018-07-20T09:47:59.437Z,28.00
2018-07-20T09:52:02.783Z,29.10
2018-07-20T09:56:06.091Z,30.10
2018-07-20T10:00:09.397Z,30.50
2018-07-20T10:04:12.653Z,30.90
2018-07-20T10:08:16.390Z,31.10
2018-07-20T10:12:19.689Z,30.20
2018-07-20T10:16:23.014Z,31.80
2018-07-20T10:20:26.295Z,31.30
2018-07-20T10:24:29.608Z,30.60
2018-07-20T10:28:32.885Z,30.10
2018-07-20T10:32:36.182Z,29.40
2018-07-20T10:36:39.694Z,30.10
2018-07-20T10:40:42.981Z,29.60
2018-07-20T10:44:46.273Z,28.90
2018-07-20T10:48:49.540Z,29.20
2018-07-20T10:52:52.885Z,30.20
2018-07-20T10:56:56.203Z,31.30
2018-07-20T11:00:59.474Z,32.30
2018-07-20T11:05:02.797Z,34.30
2018-07-20T11:09:07.373Z,36.30
2018-07-20T11:13:10.657Z,37.00
2018-07-20T11:17:14.016Z,37.40
2018-07-20T11:21:17.957Z,35.80
2018-07-20T11:25:21.266Z,37.70
2018-07-20T11:29:24.681Z,38.20
2018-07-20T11:33:28.003Z,38.10
2018-07-20T11:37:31.327Z,39.60
2018-07-20T11:41:34.649Z,38.80
2018-07-20T11:45:37.928Z,38.90
2018-07-20T11:49:41.360Z,38.10
2018-07-20T11:53:44.681Z,37.90
2018-07-20T11:57:48.046Z,38.60
2018-07-20T12:01:51.342Z,38.90
2018-07-20T12:05:54.629Z,39.10
2018-07-20T12:09:57.939Z,38.50
2018-07-20T12:14:01.237Z,38.40
2018-07-20T12:18:04.524Z,36.60
2018-07-20T12:22:07.871Z,33.70
2018-07-20T12:26:11.160Z,34.60
2018-07-20T12:30:14.484Z,34.10
2018-07-20T12:34:17.776Z,33.90
2018-07-20T12:38:21.080Z,34.00
2018-07-20T12:42:24.352Z,36.30
2018-07-20T12:46:27.619Z,36.20
2018-07-20T12:50:30.959Z,35.40
2018-07-20T12:54:34.191Z,33.00
2018-07-20T12:58:37.552Z,34.30
2018-07-20T13:02:40.805Z,35.10
2018-07-20T13:06:44.085Z,35.10
2018-07-20T13:10:47.506Z,34.80
2018-07-20T13:14:50.813Z,34.10
2018-07-20T13:18:54.102Z,37.60
2018-07-20T13:22:57.390Z,38.50
2018-07-20T13:27:00.912Z,39.20
2018-07-20T13:31:04.234Z,39.60
2018-07-20T13:35:08.112Z,38.80
2018-07-20T13:43:14.858Z,37.70
2018-07-20T13:47:18.151Z,38.20
2018-07-20T13:51:21.437Z,37.30
2018-07-20T13:55:24.709Z,36.30
2018-07-20T13:59:28.173Z,36.30
2018-07-20T14:03:31.540Z,37.20
2018-07-20T14:07:34.809Z,38.40
2018-07-20T14:11:38.384Z,38.40
2018-07-20T14:15:42.537Z,37.80
2018-07-20T14:19:45.806Z,38.80
2018-07-20T14:23:49.191Z,39.00
2018-07-20T14:27:52.459Z,38.40
2018-07-20T14:31:55.833Z,37.80
2018-07-20T14:35:59.305Z,35.10
2018-07-20T14:40:02.687Z,35.90
2018-07-20T14:44:06.093Z,36.70
2018-07-20T14:48:09.455Z,36.80
2018-07-20T14:52:12.887Z,36.70
2018-07-20T14:56:16.121Z,36.90
2018-07-20T15:00:19.402Z,36.70
2018-07-20T15:04:22.708Z,35.70
2018-07-20T15:08:26.022Z,34.90
2018-07-20T15:12:29.312Z,35.60
2018-07-20T15:16:32.604Z,35.90
2018-07-20T15:20:35.901Z,34.20
2018-07-20T15:24:39.263Z,35.10
2018-07-20T15:28:42.554Z,34.60
2018-07-20T15:32:45.817Z,35.10
2018-07-20T15:36:49.144Z,34.40
2018-07-20T15:40:52.408Z,32.80
2018-07-20T15:44:55.795Z,33.90
2018-07-20T15:48:59.090Z,32.60
2018-07-20T15:57:05.772Z,33.40
2018-07-20T16:01:09.044Z,32.60
2018-07-20T16:05:12.381Z,31.60
2018-07-20T16:09:15.681Z,31.10
2018-07-20T16:13:18.975Z,30.90
2018-07-20T16:17:22.249Z,30.30
2018-07-20T16:21:25.528Z,29.90
2018-07-20T16:25:28.869Z,30.50
2018-07-20T16:29:32.153Z,30.20
2018-07-20T16:33:35.477Z,30.40
2018-07-20T16:37:38.777Z,31.30
2018-07-20T16:41:42.071Z,31.60
2018-07-20T16:45:45.320Z,31.10
2018-07-20T16:49:48.625Z,31.20
2018-07-20T16:53:51.915Z,31.60
2018-07-20T16:57:55.200Z,31.80
2018-07-20T17:01:58.461Z,32.10
2018-07-20T17:06:02.034Z,31.20
2018-07-20T17:10:05.718Z,30.70
2018-07-20T17:14:08.998Z,30.50
2018-07-20T17:18:12.329Z,30.20
2018-07-20T17:22:15.605Z,29.90
2018-07-20T17:26:18.947Z,29.80
2018-07-20T17:30:22.244Z,29.70
2018-07-20T17:34:25.537Z,29.40
2018-07-20T17:38:28.910Z,29.10
2018-07-20T17:42:32.174Z,28.80
2018-07-20T17:46:35.485Z,28.80
2018-07-20T17:50:38.786Z,28.70
2018-07-20T17:54:42.103Z,28.60
2018-07-20T17:58:45.461Z,28.50
2018-07-20T18:02:48.716Z,28.30
2018-07-20T18:06:52.298Z,28.20
2018-07-20T18:10:55.633Z,28.00
2018-07-20T18:14:58.924Z,27.90
2018-07-20T18:19:02.237Z,27.80
2018-07-20T18:23:05.859Z,27.50
2018-07-20T18:27:09.213Z,27.20
2018-07-20T18:31:13.986Z,27.00
2018-07-20T18:35:17.282Z,26.70
2018-07-20T18:39:20.610Z,26.40
2018-07-20T18:43:23.893Z,26.20
2018-07-20T18:47:27.179Z,25.50
2018-07-20T18:51:30.442Z,24.50
2018-07-20T18:55:33.725Z,23.80
2018-07-20T18:59:37.012Z,23.10
2018-07-20T19:03:40.772Z,22.70
2018-07-20T19:07:44.076Z,22.70
2018-07-20T19:11:47.338Z,22.70
2018-07-20T19:15:50.634Z,22.80
2018-07-20T19:19:53.927Z,22.80
2018-07-20T19:23:57.287Z,22.70
2018-07-20T19:28:00.461Z,22.60
2018-07-20T19:32:03.796Z,22.60
2018-07-20T19:36:07.139Z,22.50
2018-07-20T19:40:10.457Z,22.50
2018-07-20T19:44:13.756Z,22.40
2018-07-20T19:48:17.471Z,22.30
2018-07-20T19:52:20.763Z,22.30
2018-07-20T19:56:24.005Z,22.30
2018-07-20T20:00:27.389Z,22.30
2018-07-20T20:04:30.660Z,22.20
2018-07-20T20:08:33.897Z,22.10
2018-07-20T20:12:37.184Z,22.10
2018-07-20T20:16:40.460Z,22.10
2018-07-20T20:20:43.788Z,22.00
2018-07-20T20:24:47.046Z,22.00
2018-07-20T20:28:50.385Z,21.90
2018-07-20T20:32:53.697Z,21.90
2018-07-20T20:36:56.975Z,21.90
2018-07-20T20:41:00.349Z,21.90
2018-07-20T20:45:03.690Z,21.90
2018-07-20T20:49:07.015Z,21.80
2018-07-20T20:53:10.286Z,21.80
2018-07-20T20:57:13.569Z,21.90
2018-07-20T21:01:16.877Z,21.90
2018-07-20T21:05:20.215Z,21.80
2018-07-20T21:09:23.666Z,21.90
2018-07-20T21:13:26.936Z,21.80
2018-07-20T21:17:30.226Z,21.80
2018-07-20T21:21:33.535Z,21.80
2018-07-20T21:25:36.820Z,21.90
2018-07-20T21:29:40.061Z,21.90
2018-07-20T21:33:43.298Z,21.90
2018-07-20T21:37:46.568Z,21.90
2018-07-20T21:41:49.855Z,21.90
2018-07-20T21:45:53.089Z,21.90
2018-07-20T21:49:56.367Z,21.80
2018-07-20T21:53:59.610Z,21.80
2018-07-20T21:58:02.886Z,21.80
2018-07-20T22:02:06.168Z,21.70
2018-07-20T22:06:09.417Z,21.80
2018-07-20T22:10:12.722Z,21.80
2018-07-20T22:14:16.031Z,21.70
2018-07-20T22:18:19.295Z,21.70
2018-07-20T22:22:22.613Z,21.70
2018-07-20T22:26:25.886Z,21.70
2018-07-20T22:30:29.470Z,21.60
2018-07-20T22:34:32.839Z,21.80
2018-07-20T22:38:36.113Z,21.80
2018-07-20T22:42:39.370Z,21.80
2018-07-20T22:46:42.674Z,21.80
2018-07-20T22:50:45.945Z,21.70
2018-07-20T22:54:49.225Z,21.60
2018-07-20T22:58:52.504Z,21.50
2018-07-20T23:02:55.840Z,21.50
2018-07-20T23:06:59.129Z,21.50
2018-07-20T23:11:02.492Z,21.50
2018-07-20T23:15:05.785Z,21.50
2018-07-20T23:19:09.441Z,21.40
2018-07-20T23:23:12.726Z,21.50
2018-07-20T23:27:16.205Z,21.50
2018-07-20T23:31:19.487Z,21.60
2018-07-20T23:35:22.776Z,21.50
2018-07-20T23:39:26.017Z,21.40
2018-07-20T23:43:29.284Z,21.40
2018-07-20T23:47:32.950Z,21.40
2018-07-20T23:51:36.236Z,21.50
2018-07-20T23:55:39.481Z,21.30
2018-07-20T23:59:42.809Z,21.20
